createdAt,value
2023-04-12T00:01:39.705Z,2.40
2023-04-12T00:04:06.319Z,1.50
2023-04-12T00:06:33.108Z,1.50
2023-04-12T00:09:03.542Z,1.40
2023-04-12T00:11:32.260Z,1.40
2023-04-12T00:14:03.854Z,1.90
2023-04-12T00:16:30.664Z,1.80
2023-04-12T00:19:03.473Z,2.00
2023-04-12T00:21:30.561Z,0.80
2023-04-12T00:23:57.318Z,1.50
2023-04-12T00:26:25.524Z,1.00
2023-04-12T00:28:52.265Z,1.40
2023-04-12T00:31:19.016Z,0.90
2023-04-12T00:33:45.527Z,1.30
2023-04-12T00:36:12.025Z,1.30
2023-04-12T00:38:39.691Z,1.10
2023-04-12T00:41:08.663Z,1.50
2023-04-12T00:43:37.478Z,1.00
2023-04-12T00:46:05.572Z,1.00
2023-04-12T00:48:33.643Z,1.50
2023-04-12T00:51:02.984Z,1.10
2023-04-12T00:53:30.749Z,1.10
2023-04-12T00:55:57.980Z,1.30
2023-04-12T00:58:27.191Z,1.00
2023-04-12T01:00:54.004Z,1.00
2023-04-12T01:03:27.182Z,1.00
2023-04-12T01:06:29.899Z,1.00
2023-04-12T01:12:55.293Z,0.80
2023-04-12T01:15:24.365Z,0.90
2023-04-12T01:18:05.069Z,0.90
2023-04-12T01:20:47.820Z,1.00
2023-04-12T01:24:00.433Z,1.10
2023-04-12T01:26:49.112Z,1.20
2023-04-12T01:29:20.549Z,1.50
2023-04-12T01:32:11.753Z,1.30
2023-04-12T01:34:43.408Z,1.30
2023-04-12T01:37:11.016Z,1.30
2023-04-12T01:39:41.853Z,1.00
2023-04-12T01:42:08.593Z,1.30
2023-04-12T01:44:35.301Z,1.20
2023-04-12T01:47:02.100Z,1.60
2023-04-12T01:50:08.119Z,1.10
2023-04-12T01:52:41.025Z,1.00
2023-04-12T01:55:13.336Z,2.00
2023-04-12T02:00:16.293Z,2.00
2023-04-12T02:02:44.484Z,1.40
2023-04-12T02:05:11.860Z,1.30
2023-04-12T02:07:41.659Z,1.20
2023-04-12T02:10:14.234Z,2.00
2023-04-12T02:12:41.910Z,2.00
2023-04-12T02:15:10.282Z,1.40
2023-04-12T02:17:37.842Z,1.60
2023-04-12T02:20:09.047Z,1.30
2023-04-12T02:22:36.832Z,1.30
2023-04-12T02:25:06.083Z,1.30
2023-04-12T02:27:32.692Z,1.40
2023-04-12T02:29:59.381Z,1.10
2023-04-12T02:32:30.344Z,1.90
2023-04-12T02:34:58.976Z,1.60
2023-04-12T02:37:26.814Z,1.10
2023-04-12T02:39:56.415Z,1.30
2023-04-12T02:42:24.388Z,1.20
2023-04-12T02:44:52.870Z,1.50
2023-04-12T02:47:19.955Z,1.00
2023-04-12T02:49:46.324Z,1.30
2023-04-12T02:52:13.485Z,1.40
2023-04-12T02:54:40.015Z,1.10
2023-04-12T02:57:08.602Z,1.00
2023-04-12T02:59:35.685Z,0.80
2023-04-12T03:02:02.834Z,0.90
2023-04-12T03:04:30.274Z,1.00
2023-04-12T03:06:57.754Z,0.80
2023-04-12T03:09:26.760Z,1.10
2023-04-12T03:11:53.125Z,1.00
2023-04-12T03:14:20.101Z,1.20
2023-04-12T03:16:48.517Z,0.80
2023-04-12T03:19:15.619Z,1.40
2023-04-12T03:21:42.203Z,1.00
2023-04-12T03:24:08.652Z,1.00
2023-04-12T03:26:35.408Z,1.30
2023-04-12T03:29:09.578Z,1.10
2023-04-12T03:31:38.149Z,1.10
2023-04-12T03:34:06.700Z,0.90
2023-04-12T03:36:34.570Z,0.90
2023-04-12T03:39:01.819Z,0.90
2023-04-12T03:41:28.756Z,1.00
2023-04-12T03:43:56.617Z,0.80
2023-04-12T03:46:23.640Z,1.50
2023-04-12T03:48:51.541Z,1.00
2023-04-12T03:51:21.571Z,1.60
2023-04-12T03:53:48.715Z,1.30
2023-04-12T03:56:16.081Z,1.20
2023-04-12T03:58:42.823Z,1.20
2023-04-12T04:01:09.985Z,1.20
2023-04-12T04:03:36.579Z,1.00
2023-04-12T04:06:03.836Z,1.10
2023-04-12T04:08:32.516Z,0.80
2023-04-12T04:11:03.581Z,1.00
2023-04-12T04:13:31.782Z,0.90
2023-04-12T04:16:06.236Z,1.20
2023-04-12T04:18:37.596Z,1.20
2023-04-12T04:21:06.759Z,1.00
2023-04-12T04:23:39.836Z,0.90
2023-04-12T04:26:10.657Z,1.60
2023-04-12T04:28:46.296Z,1.10
2023-04-12T04:31:13.436Z,1.30
2023-04-12T04:33:41.471Z,1.30
2023-04-12T04:36:09.486Z,1.30
2023-04-12T04:38:36.328Z,1.60
2023-04-12T04:41:04.323Z,1.50
2023-04-12T04:43:33.424Z,1.40
2023-04-12T04:46:01.745Z,1.20
2023-04-12T04:48:31.558Z,1.40
2023-04-12T04:51:01.062Z,1.20
2023-04-12T04:53:30.218Z,2.00
2023-04-12T04:55:59.314Z,1.40
2023-04-12T04:58:27.043Z,1.60
2023-04-12T05:00:58.040Z,1.30
2023-04-12T05:03:30.337Z,1.60
2023-04-12T05:06:02.790Z,1.50
2023-04-12T05:08:29.736Z,1.50
2023-04-12T05:10:57.008Z,1.90
2023-04-12T05:13:24.301Z,1.20
2023-04-12T05:15:51.597Z,1.40
2023-04-12T05:18:21.999Z,1.40
2023-04-12T05:20:49.728Z,1.60
2023-04-12T05:23:16.853Z,1.80
2023-04-12T05:25:47.469Z,1.50
2023-04-12T05:28:16.872Z,1.80
2023-04-12T05:30:45.103Z,1.50
2023-04-12T05:33:12.664Z,1.60
2023-04-12T05:35:39.786Z,1.10
2023-04-12T05:38:06.461Z,1.70
2023-04-12T05:40:32.907Z,1.40
2023-04-12T05:42:59.693Z,1.40
2023-04-12T05:45:27.601Z,2.10
2023-04-12T05:47:55.146Z,1.30
2023-04-12T05:50:21.730Z,1.40
2023-04-12T05:52:50.120Z,1.30
2023-04-12T05:55:20.882Z,2.30
2023-04-12T05:57:47.523Z,1.20
2023-04-12T06:00:18.538Z,1.30
2023-04-12T06:02:47.128Z,1.10
2023-04-12T06:05:16.658Z,1.10
2023-04-12T06:07:47.459Z,1.30
2023-04-12T06:10:16.257Z,1.70
2023-04-12T06:12:42.807Z,1.60
2023-04-12T06:15:10.880Z,1.50
2023-04-12T06:17:37.895Z,1.60
2023-04-12T06:20:09.497Z,2.00
2023-04-12T06:22:38.530Z,1.30
2023-04-12T06:25:06.290Z,1.80
2023-04-12T06:27:33.958Z,2.80
2023-04-12T06:30:00.748Z,2.30
2023-04-12T06:32:27.417Z,2.30
2023-04-12T06:34:54.236Z,1.10
2023-04-12T06:37:21.563Z,2.40
2023-04-12T06:39:48.662Z,1.60
2023-04-12T06:42:17.316Z,1.90
2023-04-12T06:44:44.273Z,1.10
2023-04-12T06:47:11.469Z,0.50
2023-04-12T06:49:38.675Z,0.90
2023-04-12T06:52:05.235Z,1.60
2023-04-12T06:54:35.805Z,1.30
2023-04-12T06:57:10.540Z,1.30
2023-04-12T06:59:38.915Z,1.10
2023-04-12T07:02:07.822Z,1.00
2023-04-12T07:04:34.362Z,1.60
2023-04-12T07:07:04.620Z,1.10
2023-04-12T07:09:32.609Z,0.70
2023-04-12T07:12:01.594Z,1.00
2023-04-12T07:14:28.589Z,1.20
2023-04-12T07:16:55.922Z,1.00
2023-04-12T07:19:23.610Z,1.00
2023-04-12T07:21:50.747Z,1.10
2023-04-12T07:24:18.042Z,1.00
2023-04-12T07:26:52.242Z,1.30
2023-04-12T07:29:18.777Z,1.10
2023-04-12T07:31:45.223Z,1.10
2023-04-12T07:34:12.278Z,1.20
2023-04-12T07:36:40.030Z,1.10
2023-04-12T07:39:11.208Z,1.20
2023-04-12T07:41:38.670Z,1.30
2023-04-12T07:44:07.631Z,1.00
2023-04-12T07:46:34.438Z,1.20
2023-04-12T07:49:05.074Z,1.20
2023-04-12T07:51:33.100Z,1.20
2023-04-12T07:54:00.139Z,2.40
2023-04-12T07:56:26.764Z,1.40
2023-04-12T07:58:53.437Z,1.60
2023-04-12T08:01:19.949Z,1.40
2023-04-12T08:03:47.160Z,1.60
2023-04-12T08:06:13.775Z,1.40
2023-04-12T08:08:40.649Z,1.50
2023-04-12T08:11:07.760Z,1.50
2023-04-12T08:13:37.185Z,1.40
2023-04-12T08:16:04.408Z,2.00
2023-04-12T08:18:31.247Z,1.50
2023-04-12T08:20:58.202Z,1.90
2023-04-12T08:23:25.913Z,1.60
2023-04-12T08:26:02.184Z,1.90
2023-04-12T08:28:30.458Z,1.40
2023-04-12T08:30:58.865Z,2.00
2023-04-12T08:33:25.453Z,1.40
2023-04-12T08:35:52.885Z,1.70
2023-04-12T08:38:23.545Z,1.70
2023-04-12T08:40:57.029Z,1.60
2023-04-12T08:43:30.612Z,1.90
2023-04-12T08:45:58.760Z,1.70
2023-04-12T08:48:27.784Z,1.90
2023-04-12T08:50:59.454Z,1.90
2023-04-12T08:53:28.359Z,1.50
2023-04-12T08:55:55.467Z,1.80
2023-04-12T08:58:24.132Z,1.50
2023-04-12T09:00:51.825Z,1.50
2023-04-12T09:03:18.736Z,1.60
2023-04-12T09:05:45.740Z,1.30
2023-04-12T09:08:13.224Z,1.70
2023-04-12T09:10:42.124Z,1.30
2023-04-12T09:13:09.690Z,1.30
2023-04-12T09:15:36.419Z,1.20
2023-04-12T09:18:10.831Z,0.90
2023-04-12T09:20:38.983Z,1.00
2023-04-12T09:23:22.618Z,1.00
2023-04-12T09:28:26.465Z,1.50
2023-04-12T09:33:40.814Z,0.80
2023-04-12T09:36:13.025Z,2.20
2023-04-12T09:38:42.325Z,1.80
2023-04-12T09:41:21.298Z,1.00
2023-04-12T09:43:50.328Z,1.60
2023-04-12T09:46:17.251Z,1.00
2023-04-12T09:48:54.614Z,1.30
2023-04-12T09:51:32.978Z,1.40
2023-04-12T09:54:09.672Z,1.30
2023-04-12T09:56:39.301Z,1.30
2023-04-12T09:59:08.601Z,0.90
2023-04-12T10:01:40.673Z,1.00
2023-04-12T10:04:09.400Z,1.10
2023-04-12T10:06:37.264Z,0.80
2023-04-12T10:09:06.133Z,1.20
2023-04-12T10:11:41.223Z,1.40
2023-04-12T10:14:09.556Z,1.60
2023-04-12T10:16:40.465Z,1.10
2023-04-12T10:19:12.423Z,1.20
2023-04-12T10:21:41.583Z,1.10
2023-04-12T10:24:09.206Z,1.20
2023-04-12T10:26:43.820Z,1.10
2023-04-12T10:31:57.246Z,0.90
2023-04-12T10:34:29.470Z,1.20
2023-04-12T10:37:00.648Z,1.20
2023-04-12T10:39:44.023Z,0.70
2023-04-12T10:42:26.657Z,0.90
2023-04-12T10:44:59.514Z,1.10
2023-04-12T10:47:49.265Z,1.40
2023-04-12T10:50:33.191Z,1.10
2023-04-12T10:53:24.668Z,1.10
2023-04-12T10:55:51.810Z,0.80
2023-04-12T10:58:48.836Z,1.20
2023-04-12T11:01:21.710Z,1.00
2023-04-12T11:04:18.831Z,1.10
2023-04-12T11:06:52.773Z,1.30
2023-04-12T11:12:04.910Z,1.10
2023-04-12T11:14:48.224Z,0.90
2023-04-12T11:17:17.743Z,1.00
2023-04-12T11:19:56.609Z,1.00
2023-04-12T11:22:29.602Z,1.10
2023-04-12T11:24:59.756Z,1.30
2023-04-12T11:27:28.737Z,0.70
2023-04-12T11:30:00.609Z,1.10
2023-04-12T11:32:29.800Z,0.70
2023-04-12T11:34:58.022Z,0.70
2023-04-12T11:37:26.315Z,0.70
2023-04-12T11:39:58.331Z,1.00
2023-04-12T11:42:28.805Z,0.90
2023-04-12T11:45:02.479Z,1.50
2023-04-12T11:47:30.330Z,0.90
2023-04-12T11:49:58.784Z,0.90
2023-04-12T11:52:31.632Z,0.70
2023-04-12T11:55:07.019Z,1.40
2023-04-12T11:57:34.901Z,0.90
2023-04-12T12:00:06.128Z,0.80
2023-04-12T12:02:43.701Z,0.90
2023-04-12T12:05:17.150Z,0.80
2023-04-12T12:07:44.605Z,0.80
2023-04-12T12:10:11.475Z,0.90
2023-04-12T12:12:42.441Z,1.00
2023-04-12T12:15:15.035Z,0.60
2023-04-12T12:17:44.102Z,0.70
2023-04-12T12:20:21.225Z,0.60
2023-04-12T12:22:48.535Z,0.60
2023-04-12T12:25:21.000Z,0.90
2023-04-12T12:27:49.795Z,0.90
2023-04-12T12:30:21.810Z,0.70
2023-04-12T12:32:54.337Z,0.70
2023-04-12T12:35:21.195Z,0.90
2023-04-12T12:37:52.781Z,0.80
2023-04-12T12:40:32.057Z,0.90
2023-04-12T12:43:00.325Z,0.70
2023-04-12T12:45:30.742Z,1.20
2023-04-12T12:48:03.276Z,0.80
2023-04-12T12:50:37.831Z,0.70
2023-04-12T12:53:09.671Z,0.90
2023-04-12T12:55:38.332Z,1.00
2023-04-12T12:58:07.378Z,0.90
2023-04-12T13:00:36.210Z,0.80
2023-04-12T13:03:03.547Z,1.00
2023-04-12T13:05:30.983Z,1.10
2023-04-12T13:07:57.703Z,0.60
2023-04-12T13:10:26.472Z,0.90
2023-04-12T13:12:53.876Z,0.60
2023-04-12T13:15:23.650Z,0.80
2023-04-12T13:17:57.835Z,0.80
2023-04-12T13:20:27.438Z,0.90
2023-04-12T13:22:55.094Z,0.60
2023-04-12T13:25:22.123Z,0.70
2023-04-12T13:27:52.301Z,0.60
2023-04-12T13:30:19.408Z,0.60
2023-04-12T13:32:46.547Z,0.70
2023-04-12T13:35:13.586Z,0.70
2023-04-12T13:37:41.326Z,0.70
2023-04-12T13:40:12.781Z,0.80
2023-04-12T13:42:40.018Z,0.60
2023-04-12T13:45:10.986Z,0.70
2023-04-12T13:47:38.454Z,0.90
2023-04-12T13:50:06.277Z,0.80
2023-04-12T13:52:34.189Z,0.80
2023-04-12T13:55:04.259Z,0.90
2023-04-12T13:57:31.244Z,0.70
2023-04-12T13:59:57.744Z,0.90
2023-04-12T14:02:24.951Z,0.70
2023-04-12T14:04:55.134Z,0.80
2023-04-12T14:07:24.391Z,0.70
2023-04-12T14:09:53.053Z,1.10
2023-04-12T14:12:19.611Z,0.50
2023-04-12T14:14:46.758Z,1.00
2023-04-12T14:17:13.300Z,0.70
2023-04-12T14:19:40.634Z,0.70
2023-04-12T14:22:07.877Z,0.80
2023-04-12T14:24:34.627Z,0.80
2023-04-12T14:27:02.080Z,0.80
2023-04-12T14:29:33.442Z,0.90
2023-04-12T14:31:59.847Z,0.90
2023-04-12T14:34:28.560Z,0.90
2023-04-12T14:36:55.698Z,0.90
2023-04-12T14:39:23.518Z,0.70
2023-04-12T14:41:50.621Z,0.80
2023-04-12T14:44:20.453Z,0.90
2023-04-12T14:46:49.209Z,0.90
2023-04-12T14:49:15.834Z,0.90
2023-04-12T14:51:42.325Z,0.70
2023-04-12T14:54:08.749Z,0.80
2023-04-12T14:56:43.181Z,0.70
2023-04-12T14:59:14.415Z,0.80
2023-04-12T15:01:42.859Z,0.60
2023-04-12T15:04:09.792Z,0.80
2023-04-12T15:06:41.852Z,0.60
2023-04-12T15:09:09.705Z,0.60
2023-04-12T15:11:40.092Z,0.70
2023-04-12T15:14:06.796Z,1.10
2023-04-12T15:16:35.148Z,0.60
2023-04-12T15:19:10.924Z,1.10
2023-04-12T15:21:43.113Z,1.00
2023-04-12T15:24:09.763Z,0.90
2023-04-12T15:26:37.692Z,0.90
2023-04-12T15:29:04.478Z,0.80
2023-04-12T15:31:33.354Z,0.80
2023-04-12T15:34:01.222Z,1.00
2023-04-12T15:36:38.832Z,0.70
2023-04-12T15:39:06.583Z,0.70
2023-04-12T15:41:37.729Z,0.80
2023-04-12T15:44:12.453Z,0.60
2023-04-12T15:46:43.238Z,0.60
2023-04-12T15:49:11.303Z,1.20
2023-04-12T15:51:38.887Z,0.90
2023-04-12T15:54:05.740Z,0.70
2023-04-12T15:56:34.623Z,0.70
2023-04-12T15:59:02.463Z,0.70
2023-04-12T16:01:30.569Z,1.00
2023-04-12T16:03:58.787Z,0.70
2023-04-12T16:06:30.462Z,0.70
2023-04-12T16:08:58.541Z,1.50
2023-04-12T16:11:28.144Z,0.90
2023-04-12T16:13:56.114Z,0.80
2023-04-12T16:16:25.227Z,0.80
2023-04-12T16:18:56.261Z,0.70
2023-04-12T16:21:25.838Z,0.80
2023-04-12T16:23:53.175Z,0.80
2023-04-12T16:26:21.363Z,1.00
2023-04-12T16:28:52.217Z,0.90
2023-04-12T16:31:20.538Z,0.90
2023-04-12T16:33:51.213Z,1.10
2023-04-12T16:36:18.655Z,0.90
2023-04-12T16:38:45.690Z,0.90
2023-04-12T16:41:12.851Z,0.90
2023-04-12T16:43:39.942Z,0.90
2023-04-12T16:46:07.301Z,0.90
2023-04-12T16:48:37.982Z,0.70
2023-04-12T16:51:07.620Z,0.70
2023-04-12T16:53:35.968Z,0.70
2023-04-12T16:56:03.840Z,0.80
2023-04-12T16:58:33.315Z,1.00
2023-04-12T17:01:03.033Z,0.80
2023-04-12T17:03:29.706Z,1.00
2023-04-12T17:05:57.308Z,0.80
2023-04-12T17:08:24.938Z,0.60
2023-04-12T17:10:53.875Z,1.00
2023-04-12T17:13:22.190Z,1.00
2023-04-12T17:15:54.498Z,1.00
2023-04-12T17:18:21.449Z,1.10
2023-04-12T17:20:48.702Z,1.00
2023-04-12T17:23:16.732Z,1.30
2023-04-12T17:25:43.786Z,1.10
2023-04-12T17:28:10.239Z,1.00
2023-04-12T17:30:38.335Z,1.00
2023-04-12T17:33:06.674Z,2.30
2023-04-12T17:35:34.704Z,1.00
2023-04-12T17:38:02.966Z,0.80
2023-04-12T17:40:32.562Z,1.00
2023-04-12T17:43:03.079Z,0.90
2023-04-12T17:45:30.266Z,0.80
2023-04-12T17:47:57.750Z,1.00
2023-04-12T17:50:24.938Z,1.00
2023-04-12T17:52:52.264Z,1.00
2023-04-12T17:55:23.007Z,0.90
2023-04-12T17:57:55.493Z,0.90
2023-04-12T18:00:24.476Z,1.10
2023-04-12T18:02:51.657Z,0.90
2023-04-12T18:05:21.763Z,1.00
2023-04-12T18:07:49.179Z,0.70
2023-04-12T18:10:21.335Z,1.10
2023-04-12T18:12:48.325Z,1.50
2023-04-12T18:15:15.826Z,2.80
2023-04-12T18:17:42.932Z,2.00
2023-04-12T18:20:15.947Z,2.60
2023-04-12T18:22:44.105Z,3.20
2023-04-12T18:25:12.864Z,2.40
2023-04-12T18:27:47.044Z,2.10
2023-04-12T18:30:16.713Z,2.10
2023-04-12T18:32:44.684Z,2.00
2023-04-12T18:35:13.870Z,4.30
2023-04-12T18:37:42.965Z,3.10
2023-04-12T18:40:12.136Z,3.10
2023-04-12T18:45:25.928Z,2.80
2023-04-12T18:47:54.659Z,2.40
2023-04-12T18:50:24.634Z,1.20
2023-04-12T18:52:57.467Z,1.10
2023-04-12T18:55:27.387Z,1.30
2023-04-12T18:57:55.401Z,1.00
2023-04-12T19:00:22.514Z,1.20
2023-04-12T19:02:50.460Z,1.20
2023-04-12T19:05:18.426Z,2.00
2023-04-12T19:07:48.273Z,1.60
2023-04-12T19:10:17.694Z,2.60
2023-04-12T19:12:44.490Z,1.90
2023-04-12T19:15:11.635Z,2.50
2023-04-12T19:17:39.739Z,2.40
2023-04-12T19:20:10.158Z,2.40
2023-04-12T19:22:38.111Z,2.30
2023-04-12T19:25:07.560Z,2.60
2023-04-12T19:27:34.562Z,2.10
2023-04-12T19:30:11.784Z,3.00
2023-04-12T19:32:40.899Z,4.20
2023-04-12T19:35:09.486Z,3.90
2023-04-12T19:37:36.942Z,2.60
2023-04-12T19:40:07.545Z,1.80
2023-04-12T19:42:34.712Z,1.40
2023-04-12T19:45:03.044Z,2.40
2023-04-12T19:47:32.144Z,1.60
2023-04-12T19:50:02.330Z,1.40
2023-04-12T19:52:30.988Z,1.40
2023-04-12T19:55:07.550Z,1.20
2023-04-12T19:57:38.359Z,1.30
2023-04-12T20:00:20.457Z,0.90
2023-04-12T20:02:50.328Z,1.00
2023-04-12T20:05:20.371Z,1.70
2023-04-12T20:07:47.655Z,2.20
2023-04-12T20:10:15.652Z,3.90
2023-04-12T20:12:44.166Z,2.10
2023-04-12T20:15:13.833Z,1.00
2023-04-12T20:17:44.071Z,1.10
2023-04-12T20:20:16.468Z,0.80
2023-04-12T20:22:46.421Z,1.10
2023-04-12T20:25:14.140Z,1.20
2023-04-12T20:27:48.478Z,1.10
2023-04-12T20:30:20.254Z,0.90
2023-04-12T20:32:49.341Z,0.80
2023-04-12T20:35:18.299Z,0.80
2023-04-12T20:37:49.768Z,0.80
2023-04-12T20:40:18.757Z,1.00
2023-04-12T20:42:47.765Z,0.70
2023-04-12T20:45:16.568Z,0.90
2023-04-12T20:47:43.838Z,1.30
2023-04-12T20:50:13.486Z,1.30
2023-04-12T20:52:41.624Z,1.30
2023-04-12T20:55:10.199Z,1.30
2023-04-12T20:57:36.674Z,1.10
2023-04-12T21:00:12.552Z,1.20
2023-04-12T21:02:39.979Z,1.20
2023-04-12T21:05:07.138Z,0.70
2023-04-12T21:07:35.508Z,1.20
2023-04-12T21:10:03.659Z,1.80
2023-04-12T21:12:31.993Z,1.80
2023-04-12T21:15:00.187Z,1.20
2023-04-12T21:17:30.209Z,1.20
2023-04-12T21:20:02.583Z,0.80
2023-04-12T21:22:32.868Z,1.10
2023-04-12T21:25:00.925Z,1.00
2023-04-12T21:27:27.619Z,1.20
2023-04-12T21:29:54.480Z,0.90
2023-04-12T21:32:21.575Z,1.10
2023-04-12T21:34:49.934Z,1.20
2023-04-12T21:37:17.422Z,1.40
2023-04-12T21:39:58.104Z,0.80
2023-04-12T21:42:28.147Z,1.10
2023-04-12T21:44:57.632Z,1.70
2023-04-12T21:47:24.406Z,0.90
2023-04-12T21:49:54.303Z,1.20
2023-04-12T21:52:21.935Z,1.40
2023-04-12T21:54:50.567Z,1.20
2023-04-12T21:57:17.120Z,1.50
2023-04-12T21:59:50.565Z,1.30
2023-04-12T22:02:19.859Z,1.90
2023-04-12T22:04:46.789Z,1.90
2023-04-12T22:07:16.437Z,1.50
2023-04-12T22:09:44.794Z,1.30
2023-04-12T22:12:14.218Z,2.00
2023-04-12T22:14:46.108Z,1.30
2023-04-12T22:17:20.610Z,1.40
2023-04-12T22:19:48.130Z,1.60
2023-04-12T22:22:15.430Z,1.40
2023-04-12T22:24:43.496Z,1.30
2023-04-12T22:27:12.259Z,1.20
2023-04-12T22:29:39.476Z,1.40
2023-04-12T22:32:13.096Z,1.20
2023-04-12T22:34:40.280Z,1.50
2023-04-12T22:37:08.665Z,0.80
2023-04-12T22:39:35.986Z,1.40
2023-04-12T22:42:09.519Z,1.60
2023-04-12T22:44:38.758Z,1.20
2023-04-12T22:47:06.861Z,1.50
2023-04-12T22:49:49.821Z,1.90
2023-04-12T22:52:17.043Z,1.50
2023-04-12T22:54:47.333Z,1.60
2023-04-12T22:57:14.267Z,1.70
2023-04-12T22:59:41.246Z,1.40
2023-04-12T23:02:11.555Z,1.70
2023-04-12T23:04:39.889Z,1.70
2023-04-12T23:07:06.863Z,1.80
2023-04-12T23:09:34.012Z,1.90
2023-04-12T23:12:01.197Z,1.70
2023-04-12T23:14:29.248Z,1.90
2023-04-12T23:16:56.501Z,1.50
2023-04-12T23:19:23.806Z,1.80
2023-04-12T23:21:53.733Z,1.60
2023-04-12T23:24:20.973Z,1.90
2023-04-12T23:26:47.752Z,2.10
2023-04-12T23:29:16.735Z,2.00
2023-04-12T23:31:45.688Z,1.90
2023-04-12T23:34:12.828Z,1.70
2023-04-12T23:36:41.505Z,1.60
2023-04-12T23:39:08.967Z,2.40
2023-04-12T23:41:35.782Z,2.00
2023-04-12T23:44:02.228Z,2.30
2023-04-12T23:46:30.694Z,2.20
2023-04-12T23:48:58.921Z,1.90
2023-04-12T23:51:29.153Z,2.10
2023-04-12T23:53:57.312Z,1.80
2023-04-12T23:56:26.075Z,2.40
2023-04-12T23:58:52.841Z,2.10
